Time;durP1;ratioP1;P1;durP2;ratioP2;P2;SDS_P1;SDS_P2;PMS_P1;PMS_P2;Temp;Humidity;BMP_temperature;BMP_pressure;BME280_temperature;BME280_humidity;BME280_pressure;Samples;Min_cycle;Max_cycle;Signal;HPM_P1;HPM_P2
2022/03/17 00:00:17;;;;;;;;;;;5.50;99.90;;;;;;5032868;28;19925;-62
2022/03/17 00:02:43;;;;;;;;;;;5.50;99.90;;;;;;5049858;28;20011;-62
2022/03/17 00:05:11;;;;;;;;;;;5.50;99.90;;;;;;5033779;28;19921;-62
2022/03/17 00:07:39;;;;;;;;;;;5.50;99.90;;;;;;5033030;28;20385;-62
2022/03/17 00:10:09;;;;;;;;;;;5.60;99.90;;;;;;5043898;28;20353;-62
2022/03/17 00:12:37;;;;;;;;;;;5.60;99.90;;;;;;5053008;28;19920;-62
2022/03/17 00:15:07;;;;;;;;;;;5.60;99.90;;;;;;5053224;28;20011;-62
2022/03/17 00:17:34;;;;;;;;;;;5.60;99.90;;;;;;5052999;28;19927;-62
2022/03/17 00:20:02;;;;;;;;;;;5.60;99.90;;;;;;5044674;28;19956;-62
2022/03/17 00:22:29;;;;;;;;;;;5.60;99.90;;;;;;5052311;28;19927;-62
2022/03/17 00:24:56;;;;;;;;;;;5.60;99.90;;;;;;5052865;28;20373;-62
2022/03/17 00:27:22;;;;;;;;;;;5.90;99.90;;;;;;5047376;28;19925;-62
2022/03/17 00:29:50;;;;;;;;;;;5.60;99.90;;;;;;5025404;28;19968;-62
2022/03/17 00:32:17;;;;;;;;;;;5.60;99.90;;;;;;5032594;28;20360;-62
2022/03/17 00:37:29;;;;;;;;;;;5.50;99.90;;;;;;5046992;28;19921;-62
2022/03/17 00:39:56;;;;;;;;;;;5.50;99.90;;;;;;5033863;28;19925;-62
2022/03/17 00:42:23;;;;;;;;;;;5.60;99.90;;;;;;5032711;28;20362;-62
2022/03/17 00:44:50;;;;;;;;;;;5.50;99.90;;;;;;5041458;28;19928;-62
2022/03/17 00:47:17;;;;;;;;;;;5.60;99.90;;;;;;5047880;28;19925;-62
2022/03/17 00:49:44;;;;;;;;;;;5.60;99.90;;;;;;5032129;28;19927;-63
2022/03/17 00:52:11;;;;;;;;;;;5.60;99.90;;;;;;5032359;28;19921;-62
2022/03/17 00:54:39;;;;;;;;;;;5.50;99.90;;;;;;5039214;28;19921;-62
2022/03/17 00:57:06;;;;;;;;;;;5.60;99.90;;;;;;5040649;28;19951;-62
2022/03/17 00:59:33;;;;;;;;;;;5.60;99.90;;;;;;5031946;28;19970;-62
2022/03/17 01:02:00;;;;;;;;;;;5.50;99.90;;;;;;5032290;28;20015;-62
2022/03/17 01:04:27;;;;;;;;;;;5.60;99.90;;;;;;5037747;28;20567;-62
2022/03/17 01:06:54;;;;;;;;;;;5.60;99.90;;;;;;5042492;28;19967;-62
2022/03/17 01:09:20;;;;;;;;;;;5.60;99.90;;;;;;5035433;28;20385;-62
2022/03/17 01:11:47;;;;;;;;;;;5.60;99.90;;;;;;5048425;28;20434;-62
2022/03/17 01:14:14;;;;;;;;;;;5.70;99.90;;;;;;5032152;28;19921;-62
2022/03/17 01:16:41;;;;;;;;;;;5.70;99.90;;;;;;5031938;28;20012;-62
2022/03/17 01:19:08;;;;;;;;;;;5.70;99.90;;;;;;5042761;28;20408;-62
2022/03/17 01:21:35;;;;;;;;;;;5.60;99.90;;;;;;5051903;28;19924;-62
2022/03/17 01:24:02;;;;;;;;;;;5.60;99.90;;;;;;5052112;28;20258;-62
2022/03/17 01:26:29;;;;;;;;;;;5.70;99.90;;;;;;5051826;28;20015;-62
2022/03/17 01:28:55;;;;;;;;;;;5.60;99.90;;;;;;5050235;28;20219;-62
2022/03/17 01:31:23;;;;;;;;;;;5.70;99.90;;;;;;5051607;28;19971;-62
2022/03/17 01:33:50;;;;;;;;;;;6.40;99.90;;;;;;5051246;28;19921;-62
2022/03/17 01:36:17;;;;;;;;;;;5.70;99.90;;;;;;5050898;28;19952;-62
2022/03/17 01:38:44;;;;;;;;;;;5.60;99.90;;;;;;5047934;28;19920;-62
2022/03/17 01:41:11;;;;;;;;;;;5.70;99.90;;;;;;5031745;28;19952;-63
2022/03/17 01:43:38;;;;;;;;;;;5.60;99.90;;;;;;5014156;28;20451;-62
2022/03/17 01:46:05;;;;;;;;;;;5.60;99.90;;;;;;5034220;28;19921;-62
2022/03/17 01:48:32;;;;;;;;;;;5.50;99.90;;;;;;5044847;28;19921;-62
2022/03/17 01:50:58;;;;;;;;;;;5.50;99.90;;;;;;5030477;28;20404;-62
2022/03/17 01:53:25;;;;;;;;;;;5.60;99.90;;;;;;5046442;28;19921;-62
2022/03/17 01:55:52;;;;;;;;;;;5.60;99.90;;;;;;5047952;28;19921;-62
2022/03/17 01:58:19;;;;;;;;;;;5.60;99.90;;;;;;5046453;28;20439;-62
2022/03/17 02:00:47;;;;;;;;;;;5.60;99.90;;;;;;5031286;28;20427;-62
2022/03/17 02:03:14;;;;;;;;;;;5.60;99.90;;;;;;5035566;28;19974;-62
2022/03/17 02:05:43;;;;;;;;;;;5.60;99.90;;;;;;5043732;28;19921;-62
2022/03/17 02:08:11;;;;;;;;;;;5.60;99.90;;;;;;5033475;28;19921;-62
2022/03/17 02:13:23;;;;;;;;;;;5.60;99.90;;;;;;5045262;28;19974;-62
2022/03/17 02:15:54;;;;;;;;;;;5.50;99.90;;;;;;5034025;28;19921;-62
2022/03/17 02:18:21;;;;;;;;;;;5.60;99.90;;;;;;5030910;28;20373;-62
2022/03/17 02:20:48;;;;;;;;;;;5.60;99.90;;;;;;5031096;28;19967;-61
2022/03/17 02:26:03;;;;;;;;;;;5.50;99.90;;;;;;5032480;28;19975;-62
2022/03/17 02:28:31;;;;;;;;;;;5.50;99.90;;;;;;5031323;28;19921;-62
2022/03/17 02:30:59;;;;;;;;;;;5.50;99.90;;;;;;5040972;28;19967;-62
2022/03/17 02:33:26;;;;;;;;;;;5.50;99.90;;;;;;5051113;28;19921;-62
2022/03/17 02:35:55;;;;;;;;;;;5.50;99.90;;;;;;5051319;28;19956;-62
2022/03/17 02:38:22;;;;;;;;;;;5.50;99.90;;;;;;5048283;28;19927;-62
2022/03/17 02:40:52;;;;;;;;;;;5.60;99.90;;;;;;5046412;28;20385;-62
2022/03/17 02:43:19;;;;;;;;;;;5.50;99.90;;;;;;5050704;28;19927;-62
2022/03/17 02:45:47;;;;;;;;;;;5.50;99.90;;;;;;5051734;28;20344;-62
2022/03/17 02:48:15;;;;;;;;;;;5.50;99.90;;;;;;5047527;28;19921;-62
2022/03/17 02:50:41;;;;;;;;;;;5.50;99.90;;;;;;5046535;28;20405;-62
2022/03/17 02:53:09;;;;;;;;;;;5.50;99.90;;;;;;5034870;28;19921;-62
2022/03/17 02:55:37;;;;;;;;;;;5.50;99.90;;;;;;5035103;28;19921;-61
2022/03/17 02:58:05;;;;;;;;;;;5.50;99.90;;;;;;5045286;28;20023;-62
2022/03/17 03:00:32;;;;;;;;;;;6.30;99.90;;;;;;5054314;28;20381;-62
2022/03/17 03:02:59;;;;;;;;;;;5.50;99.90;;;;;;5054555;28;19951;-62
2022/03/17 03:05:27;;;;;;;;;;;5.60;99.90;;;;;;5046968;28;19931;-61
2022/03/17 03:07:54;;;;;;;;;;;5.50;99.90;;;;;;5044760;28;20015;-62
2022/03/17 03:10:21;;;;;;;;;;;5.50;99.90;;;;;;5034415;28;19971;-62
2022/03/17 03:12:48;;;;;;;;;;;5.40;99.90;;;;;;5034599;28;19925;-62
2022/03/17 03:15:15;;;;;;;;;;;5.40;99.90;;;;;;5046758;28;19921;-62
2022/03/17 03:17:42;;;;;;;;;;;5.40;99.90;;;;;;5037755;28;20396;-62
2022/03/17 03:20:09;;;;;;;;;;;5.40;99.90;;;;;;5034024;28;19921;-62
2022/03/17 03:22:39;;;;;;;;;;;5.40;99.90;;;;;;5041551;28;20332;-62
2022/03/17 03:25:07;;;;;;;;;;;5.40;99.90;;;;;;5042835;28;19925;-62
2022/03/17 03:27:34;;;;;;;;;;;5.40;99.90;;;;;;5034178;28;19921;-62
2022/03/17 03:30:01;;;;;;;;;;;5.40;99.90;;;;;;5033971;28;19921;-62
2022/03/17 03:32:28;;;;;;;;;;;5.40;99.90;;;;;;5030385;28;19964;-62
2022/03/17 03:34:55;;;;;;;;;;;5.40;99.90;;;;;;5053984;28;19927;-62
2022/03/17 03:37:25;;;;;;;;;;;5.30;99.90;;;;;;5053967;28;19925;-62
2022/03/17 03:39:53;;;;;;;;;;;5.30;99.90;;;;;;5052114;28;19963;-62
2022/03/17 03:42:20;;;;;;;;;;;5.30;99.90;;;;;;5048815;28;19987;-62
2022/03/17 03:44:48;;;;;;;;;;;5.30;99.90;;;;;;5033671;28;20519;-62
2022/03/17 03:47:15;;;;;;;;;;;5.20;99.90;;;;;;5045277;28;19959;-62
2022/03/17 03:49:42;;;;;;;;;;;5.20;99.90;;;;;;5052540;28;19986;-62
2022/03/17 03:52:11;;;;;;;;;;;5.20;99.90;;;;;;5052397;28;19928;-61
2022/03/17 03:54:38;;;;;;;;;;;5.20;99.90;;;;;;5052946;28;19994;-62
2022/03/17 03:57:05;;;;;;;;;;;5.10;99.90;;;;;;5044107;28;19928;-62
2022/03/17 03:59:32;;;;;;;;;;;5.10;99.90;;;;;;5052162;28;19920;-62
2022/03/17 04:02:00;;;;;;;;;;;5.00;99.90;;;;;;5053078;28;19924;-62
2022/03/17 04:04:28;;;;;;;;;;;5.00;99.90;;;;;;5051369;28;19921;-62
2022/03/17 04:06:59;;;;;;;;;;;5.00;99.90;;;;;;5049919;28;20020;-62
2022/03/17 04:09:27;;;;;;;;;;;5.00;99.90;;;;;;5033198;28;19928;-62
2022/03/17 04:11:54;;;;;;;;;;;5.00;99.90;;;;;;5033318;28;19944;-62
2022/03/17 04:14:21;;;;;;;;;;;4.90;99.90;;;;;;5038335;28;19969;-62
2022/03/17 04:16:48;;;;;;;;;;;5.00;99.90;;;;;;5044776;28;20288;-62
2022/03/17 04:19:15;;;;;;;;;;;4.90;99.90;;;;;;5032913;28;19921;-62
2022/03/17 04:21:43;;;;;;;;;;;4.90;99.90;;;;;;5033242;28;19990;-62
2022/03/17 04:24:10;;;;;;;;;;;4.90;99.90;;;;;;5044752;28;19921;-62
2022/03/17 04:26:38;;;;;;;;;;;5.00;99.90;;;;;;5053214;28;20011;-62
2022/03/17 04:29:04;;;;;;;;;;;4.90;99.90;;;;;;5046005;28;20470;-62
2022/03/17 04:31:31;;;;;;;;;;;4.90;99.90;;;;;;5031659;28;20434;-62
2022/03/17 04:33:58;;;;;;;;;;;4.90;99.90;;;;;;5031948;28;19921;-62
2022/03/17 04:36:25;;;;;;;;;;;4.90;99.90;;;;;;5038477;28;19967;-62
2022/03/17 04:38:52;;;;;;;;;;;4.80;99.90;;;;;;5050331;28;19921;-62
2022/03/17 04:41:19;;;;;;;;;;;4.80;99.90;;;;;;5052645;28;20023;-62
2022/03/17 04:43:46;;;;;;;;;;;4.80;99.90;;;;;;5051775;28;19971;-62
2022/03/17 04:46:13;;;;;;;;;;;4.80;99.90;;;;;;5047115;28;19925;-62
2022/03/17 04:48:40;;;;;;;;;;;4.80;99.90;;;;;;5044875;28;19929;-62
2022/03/17 04:51:07;;;;;;;;;;;4.80;99.90;;;;;;5032305;28;20382;-63
2022/03/17 04:53:59;;;;;;;;;;;4.80;99.90;;;;;;5128154;22;19930;-59
2022/03/17 04:56:26;;;;;;;;;;;4.70;99.90;;;;;;5108063;28;19965;-60
2022/03/17 04:58:53;;;;;;;;;;;4.80;99.90;;;;;;5112477;28;20311;-59
2022/03/17 05:01:19;;;;;;;;;;;4.70;99.90;;;;;;5103282;28;19924;-58
2022/03/17 05:03:46;;;;;;;;;;;4.70;99.90;;;;;;5101631;28;19920;-59
2022/03/17 05:06:14;;;;;;;;;;;4.70;99.90;;;;;;5098395;28;19990;-59
2022/03/17 05:08:41;;;;;;;;;;;4.70;99.90;;;;;;5084699;28;20377;-59
2022/03/17 05:11:09;;;;;;;;;;;4.70;99.90;;;;;;5094606;28;20010;-59
2022/03/17 05:13:36;;;;;;;;;;;4.70;99.90;;;;;;5106738;28;19919;-59
2022/03/17 05:16:04;;;;;;;;;;;4.80;99.90;;;;;;5112154;28;19939;-59
2022/03/17 05:18:32;;;;;;;;;;;4.80;99.90;;;;;;5112570;28;20387;-59
2022/03/17 05:20:58;;;;;;;;;;;4.80;99.90;;;;;;5105640;28;19920;-59
2022/03/17 05:23:25;;;;;;;;;;;4.80;99.90;;;;;;5103108;28;19923;-59
2022/03/17 05:25:52;;;;;;;;;;;4.80;99.90;;;;;;5089532;28;19919;-59
2022/03/17 05:28:19;;;;;;;;;;;4.80;99.90;;;;;;5099670;28;20322;-59
2022/03/17 05:30:46;;;;;;;;;;;4.70;99.90;;;;;;5101391;28;19974;-59
2022/03/17 05:33:14;;;;;;;;;;;4.70;99.90;;;;;;5112314;28;19923;-59
2022/03/17 05:35:41;;;;;;;;;;;4.70;99.90;;;;;;5111020;28;20380;-60
2022/03/17 05:38:08;;;;;;;;;;;4.70;99.90;;;;;;5111101;28;19924;-59
2022/03/17 05:40:35;;;;;;;;;;;4.70;99.90;;;;;;5108934;28;19966;-59
2022/03/17 05:43:03;;;;;;;;;;;4.70;99.90;;;;;;5110440;28;19927;-61
2022/03/17 05:45:30;;;;;;;;;;;4.70;99.90;;;;;;5110329;28;19919;-59
2022/03/17 05:47:58;;;;;;;;;;;4.70;99.90;;;;;;5108517;28;19924;-59
2022/03/17 05:50:26;;;;;;;;;;;4.80;99.90;;;;;;5105710;28;19920;-58
2022/03/17 05:52:53;;;;;;;;;;;4.80;99.90;;;;;;5112215;28;19965;-59
2022/03/17 05:55:21;;;;;;;;;;;4.80;99.90;;;;;;5106017;28;19952;-59
2022/03/17 05:57:49;;;;;;;;;;;4.90;99.90;;;;;;5098544;28;19943;-59
2022/03/17 06:00:17;;;;;;;;;;;4.80;99.90;;;;;;5110047;28;19920;-59
2022/03/17 06:02:45;;;;;;;;;;;4.90;99.90;;;;;;5110331;28;19923;-59
2022/03/17 06:05:12;;;;;;;;;;;4.90;99.90;;;;;;5108337;28;19935;-59
2022/03/17 06:07:39;;;;;;;;;;;4.90;99.90;;;;;;5099873;28;19920;-59
2022/03/17 06:10:07;;;;;;;;;;;4.90;99.90;;;;;;5091178;28;19924;-62
2022/03/17 06:12:34;;;;;;;;;;;5.00;99.90;;;;;;5091338;28;19931;-59
2022/03/17 06:15:02;;;;;;;;;;;5.00;99.90;;;;;;5093624;28;19920;-61
2022/03/17 06:17:55;;;;;;;;;;;5.00;99.90;;;;;;5103277;28;19943;-59
2022/03/17 06:20:26;;;;;;;;;;;5.10;99.90;;;;;;5109251;28;20616;-59
2022/03/17 06:22:54;;;;;;;;;;;5.20;99.90;;;;;;5116170;28;19926;-59
2022/03/17 06:25:22;;;;;;;;;;;5.20;99.90;;;;;;5104251;28;19950;-59
2022/03/17 06:27:49;;;;;;;;;;;5.30;99.90;;;;;;5113287;28;19997;-59
2022/03/17 06:30:20;;;;;;;;;;;5.30;99.90;;;;;;5114307;28;19944;-59
2022/03/17 06:32:47;;;;;;;;;;;5.40;99.90;;;;;;5103742;28;19923;-59
2022/03/17 06:35:17;;;;;;;;;;;5.40;99.90;;;;;;5102979;28;20022;-59
2022/03/17 06:37:45;;;;;;;;;;;5.50;99.90;;;;;;5095205;28;20388;-59
2022/03/17 06:40:12;;;;;;;;;;;5.60;99.90;;;;;;5094977;28;19924;-59
2022/03/17 06:42:39;;;;;;;;;;;5.70;99.90;;;;;;5108172;28;19920;-59
2022/03/17 06:45:06;;;;;;;;;;;5.70;99.90;;;;;;5113896;28;20006;-59
2022/03/17 06:47:33;;;;;;;;;;;5.70;99.90;;;;;;5115053;28;19919;-59
2022/03/17 06:50:00;;;;;;;;;;;5.70;99.90;;;;;;5114287;28;20472;-59
2022/03/17 06:52:26;;;;;;;;;;;5.80;99.90;;;;;;5106846;28;19924;-59
2022/03/17 06:54:53;;;;;;;;;;;5.90;99.90;;;;;;5106887;28;19929;-59
2022/03/17 06:57:21;;;;;;;;;;;6.00;99.90;;;;;;5115464;28;19920;-62
2022/03/17 06:59:48;;;;;;;;;;;6.00;99.90;;;;;;5114149;28;19926;-59
2022/03/17 07:02:15;;;;;;;;;;;6.00;99.90;;;;;;5103067;28;20037;-59
2022/03/17 07:04:43;;;;;;;;;;;6.00;99.90;;;;;;5111484;28;19919;-59
2022/03/17 07:07:10;;;;;;;;;;;6.10;99.90;;;;;;5115218;28;20414;-59
2022/03/17 07:09:37;;;;;;;;;;;6.30;99.90;;;;;;5109907;28;20345;-59
2022/03/17 07:12:05;;;;;;;;;;;6.40;99.90;;;;;;5105771;28;21280;-59
2022/03/17 07:14:32;;;;;;;;;;;6.40;99.90;;;;;;5096891;28;20379;-59
2022/03/17 07:16:58;;;;;;;;;;;6.50;99.90;;;;;;5115179;28;19920;-59
2022/03/17 07:19:25;;;;;;;;;;;6.60;99.90;;;;;;5110134;28;19951;-59
2022/03/17 07:21:53;;;;;;;;;;;6.60;99.90;;;;;;5103914;28;19920;-59
2022/03/17 07:24:20;;;;;;;;;;;6.60;99.90;;;;;;5114995;28;19970;-59
2022/03/17 07:26:46;;;;;;;;;;;6.60;99.90;;;;;;5113884;28;20376;-59
2022/03/17 07:29:13;;;;;;;;;;;6.70;99.90;;;;;;5102338;28;19920;-59
2022/03/17 07:31:40;;;;;;;;;;;6.80;99.90;;;;;;5110541;28;19920;-59
2022/03/17 07:34:07;;;;;;;;;;;6.90;99.90;;;;;;5114895;28;19923;-59
2022/03/17 07:36:34;;;;;;;;;;;6.90;99.90;;;;;;5111958;28;19920;-59
2022/03/17 07:39:02;;;;;;;;;;;6.80;99.90;;;;;;5105751;28;19920;-59
2022/03/17 07:41:29;;;;;;;;;;;6.90;99.90;;;;;;5114609;28;19980;-59
2022/03/17 07:43:56;;;;;;;;;;;6.80;99.90;;;;;;5108307;28;19924;-59
2022/03/17 07:46:52;;;;;;;;;;;6.90;99.90;;;;;;4998299;28;19928;-59
2022/03/17 07:49:33;;;;;;;;;;;7.00;99.90;;;;;;5095870;28;19920;-59
2022/03/17 07:51:59;;;;;;;;;;;7.10;99.90;;;;;;5114286;28;19973;-59
2022/03/17 07:54:27;;;;;;;;;;;7.10;99.90;;;;;;5104952;28;20018;-59
2022/03/17 07:56:54;;;;;;;;;;;7.20;99.90;;;;;;5105690;28;19988;-59
2022/03/17 07:59:20;;;;;;;;;;;7.30;99.90;;;;;;5113704;28;19973;-59
2022/03/17 08:01:47;;;;;;;;;;;7.30;99.90;;;;;;5106454;28;19950;-59
2022/03/17 08:04:14;;;;;;;;;;;7.40;99.90;;;;;;5105946;28;19926;-59
2022/03/17 08:06:41;;;;;;;;;;;7.40;99.90;;;;;;5114413;28;19923;-59
2022/03/17 08:09:08;;;;;;;;;;;7.50;99.90;;;;;;5113686;28;20014;-59
2022/03/17 08:11:35;;;;;;;;;;;7.60;99.90;;;;;;5106689;28;19930;-60
2022/03/17 08:14:02;;;;;;;;;;;7.70;99.90;;;;;;5105591;28;20322;-60
2022/03/17 08:16:28;;;;;;;;;;;7.90;99.90;;;;;;5113902;28;19923;-60
2022/03/17 08:18:56;;;;;;;;;;;7.90;99.90;;;;;;5113502;28;19976;-60
2022/03/17 08:21:22;;;;;;;;;;;8.10;99.90;;;;;;5101125;28;19920;-60
2022/03/17 08:23:49;;;;;;;;;;;8.10;99.90;;;;;;5110892;28;19926;-60
2022/03/17 08:26:16;;;;;;;;;;;8.20;99.90;;;;;;5113795;28;19923;-60
2022/03/17 08:28:43;;;;;;;;;;;8.30;99.90;;;;;;5105019;28;19923;-60
2022/03/17 08:31:12;;;;;;;;;;;8.40;99.90;;;;;;5093516;28;20384;-60
2022/03/17 08:33:39;;;;;;;;;;;8.50;99.90;;;;;;5093190;28;19920;-60
2022/03/17 08:36:06;;;;;;;;;;;8.50;99.90;;;;;;5093240;28;19971;-59
2022/03/17 08:38:33;;;;;;;;;;;8.60;99.90;;;;;;5099152;28;19919;-60
2022/03/17 08:41:00;;;;;;;;;;;8.60;99.90;;;;;;5104969;28;20295;-59
2022/03/17 08:43:26;;;;;;;;;;;8.70;99.90;;;;;;5112838;28;19926;-60
2022/03/17 08:51:25;;;;;;;;;;;8.80;99.90;;;;;;5113226;28;20275;-59
2022/03/17 08:53:52;;;;;;;;;;;8.90;99.90;;;;;;5104548;28;20541;-60
2022/03/17 08:56:19;;;;;;;;;;;9.00;99.90;;;;;;5104697;28;19919;-60
2022/03/17 08:58:46;;;;;;;;;;;9.10;99.90;;;;;;5112852;28;19924;-60
2022/03/17 09:01:13;;;;;;;;;;;9.10;99.90;;;;;;5111380;28;19924;-60
2022/03/17 09:03:40;;;;;;;;;;;9.20;99.90;;;;;;5101121;28;19924;-60
2022/03/17 09:06:10;;;;;;;;;;;9.30;99.90;;;;;;5112601;28;19923;-60
2022/03/17 09:08:41;;;;;;;;;;;9.40;99.90;;;;;;5113199;28;19920;-60
2022/03/17 09:11:12;;;;;;;;;;;9.40;99.90;;;;;;5109085;28;19919;-60
2022/03/17 09:13:39;;;;;;;;;;;9.40;99.90;;;;;;5104269;28;19919;-60
2022/03/17 09:16:06;;;;;;;;;;;9.50;99.90;;;;;;5112602;28;19927;-60
2022/03/17 09:18:33;;;;;;;;;;;9.50;99.90;;;;;;5112649;28;19980;-59
2022/03/17 09:21:00;;;;;;;;;;;9.60;99.90;;;;;;5100262;28;19923;-60
2022/03/17 09:23:29;;;;;;;;;;;9.60;99.90;;;;;;5106649;28;19926;-60
2022/03/17 09:25:56;;;;;;;;;;;9.70;99.90;;;;;;5112786;28;19989;-60
2022/03/17 09:28:23;;;;;;;;;;;9.70;99.90;;;;;;5104037;28;20269;-60
2022/03/17 09:30:51;;;;;;;;;;;9.80;99.90;;;;;;5109460;28;19923;-60
2022/03/17 09:33:18;;;;;;;;;;;9.90;99.90;;;;;;5112537;28;19970;-60
2022/03/17 09:35:45;;;;;;;;;;;9.90;99.90;;;;;;5107842;28;19919;-60
2022/03/17 09:38:11;;;;;;;;;;;10.00;99.90;;;;;;5104213;28;19919;-60
2022/03/17 09:40:38;;;;;;;;;;;10.00;99.90;;;;;;5112165;28;19920;-60
2022/03/17 09:43:22;;;;;;;;;;;10.10;99.90;;;;;;5112702;28;19923;-59
2022/03/17 09:45:52;;;;;;;;;;;10.10;99.90;;;;;;5102734;28;19927;-60
2022/03/17 09:48:21;;;;;;;;;;;10.20;99.90;;;;;;5105204;28;19919;-60
2022/03/17 09:50:50;;;;;;;;;;;10.20;99.90;;;;;;5112239;28;19927;-59
2022/03/17 09:53:16;;;;;;;;;;;10.30;99.90;;;;;;5110303;28;19926;-60
2022/03/17 09:55:43;;;;;;;;;;;10.40;99.90;;;;;;5104559;28;20437;-59
2022/03/17 09:58:10;;;;;;;;;;;10.50;99.90;;;;;;5116366;28;19926;-60
2022/03/17 10:00:50;;;;;;;;;;;10.70;99.90;;;;;;5116391;28;19923;-60
2022/03/17 10:03:25;;;;;;;;;;;10.70;99.90;;;;;;5088321;28;19927;-60
2022/03/17 10:05:53;;;;;;;;;;;10.80;99.90;;;;;;5089120;28;19959;-60
2022/03/17 10:08:21;;;;;;;;;;;10.80;99.90;;;;;;5091498;28;19920;-60
2022/03/17 10:10:49;;;;;;;;;;;10.90;99.90;;;;;;5094655;28;19920;-61
2022/03/17 10:13:17;;;;;;;;;;;10.80;99.90;;;;;;5090927;28;19948;-60
2022/03/17 10:15:44;;;;;;;;;;;10.90;99.90;;;;;;5095673;28;19973;-60
2022/03/17 10:18:18;;;;;;;;;;;10.80;99.90;;;;;;5089261;28;20015;-59
2022/03/17 10:20:46;;;;;;;;;;;10.90;99.90;;;;;;5094751;28;19924;-59
2022/03/17 10:23:13;;;;;;;;;;;10.80;99.90;;;;;;5091296;28;19926;-60
2022/03/17 10:25:39;;;;;;;;;;;10.80;99.90;;;;;;5095559;28;19965;-60
2022/03/17 10:28:13;;;;;;;;;;;10.70;99.90;;;;;;5091241;28;19924;-60
2022/03/17 10:30:40;;;;;;;;;;;10.80;99.90;;;;;;5095143;28;19950;-60
2022/03/17 10:33:15;;;;;;;;;;;10.80;99.90;;;;;;5090959;28;20010;-60
2022/03/17 10:35:46;;;;;;;;;;;10.80;99.90;;;;;;5095295;28;20021;-60
2022/03/17 10:38:15;;;;;;;;;;;10.90;99.90;;;;;;5090007;28;20408;-60
2022/03/17 10:40:42;;;;;;;;;;;11.10;99.90;;;;;;5095008;28;20265;-60
2022/03/17 10:43:13;;;;;;;;;;;11.20;99.90;;;;;;5089127;28;20523;-60
2022/03/17 10:45:39;;;;;;;;;;;11.30;99.90;;;;;;5094865;28;20508;-60
2022/03/17 10:48:07;;;;;;;;;;;11.60;99.90;;;;;;5090554;28;20380;-60
2022/03/17 10:50:38;;;;;;;;;;;11.70;99.90;;;;;;5089766;28;19922;-60
2022/03/17 10:53:05;;;;;;;;;;;11.80;99.90;;;;;;5091144;28;19920;-60
2022/03/17 10:55:34;;;;;;;;;;;11.80;99.90;;;;;;5094306;28;19923;-60
2022/03/17 10:58:12;;;;;;;;;;;11.80;99.90;;;;;;5091206;28;19927;-60
2022/03/17 11:00:45;;;;;;;;;;;11.80;99.90;;;;;;5090320;28;20425;-60
2022/03/17 11:03:13;;;;;;;;;;;11.90;99.90;;;;;;5088871;28;20015;-60
2022/03/17 11:05:40;;;;;;;;;;;11.80;99.90;;;;;;5094396;28;20407;-60
2022/03/17 11:08:10;;;;;;;;;;;11.80;99.90;;;;;;5090681;28;19961;-60
2022/03/17 11:10:40;;;;;;;;;;;11.60;99.90;;;;;;5089828;28;19927;-60
2022/03/17 11:13:11;;;;;;;;;;;11.60;99.90;;;;;;5090428;28;19973;-60
2022/03/17 11:15:39;;;;;;;;;;;11.60;99.90;;;;;;5094401;28;19973;-60
2022/03/17 11:18:06;;;;;;;;;;;11.50;99.90;;;;;;5094288;28;19920;-59
2022/03/17 11:20:33;;;;;;;;;;;11.50;99.90;;;;;;5093855;28;19920;-60
2022/03/17 11:23:09;;;;;;;;;;;11.50;99.90;;;;;;5104944;28;19955;-60
2022/03/17 11:25:36;;;;;;;;;;;11.50;99.90;;;;;;5114851;28;19927;-60
2022/03/17 11:28:04;;;;;;;;;;;11.50;99.90;;;;;;5114756;28;19919;-60
2022/03/17 11:30:57;;;;;;;;;;;11.60;99.90;;;;;;5108468;28;19920;-60
2022/03/17 11:33:35;;;;;;;;;;;11.50;99.90;;;;;;5093656;28;19920;-59
2022/03/17 11:36:08;;;;;;;;;;;11.60;99.90;;;;;;5094410;28;19920;-60
2022/03/17 11:38:39;;;;;;;;;;;11.80;99.90;;;;;;5094304;28;19920;-60
2022/03/17 11:41:12;;;;;;;;;;;12.00;99.90;;;;;;5102216;28;20300;-60
2022/03/17 11:43:45;;;;;;;;;;;12.00;99.90;;;;;;5110249;28;19964;-60
2022/03/17 11:46:12;;;;;;;;;;;12.20;99.90;;;;;;5114531;28;19933;-60
2022/03/17 11:48:39;;;;;;;;;;;12.40;99.90;;;;;;5112436;28;19951;-60
2022/03/17 11:51:07;;;;;;;;;;;12.60;99.90;;;;;;5105123;28;19920;-59
2022/03/17 11:53:52;;;;;;;;;;;12.70;99.90;;;;;;5114267;28;19919;-60
2022/03/17 11:56:37;;;;;;;;;;;12.70;99.90;;;;;;5114237;28;20383;-60
2022/03/17 11:59:07;;;;;;;;;;;12.90;99.90;;;;;;5107293;28;19943;-60
2022/03/17 12:01:39;;;;;;;;;;;12.90;99.90;;;;;;5108838;28;19992;-60
2022/03/17 12:04:07;;;;;;;;;;;12.90;99.90;;;;;;5114234;28;19923;-60
2022/03/17 12:06:35;;;;;;;;;;;12.90;99.90;;;;;;5108397;28;19919;-60
2022/03/17 12:09:07;;;;;;;;;;;12.90;99.90;;;;;;5105041;28;20330;-60
2022/03/17 12:11:39;;;;;;;;;;;12.90;99.90;;;;;;5114071;28;19927;-60
2022/03/17 12:14:18;;;;;;;;;;;12.80;99.90;;;;;;5111066;28;19972;-60
2022/03/17 12:16:51;;;;;;;;;;;12.80;99.90;;;;;;5101963;28;19943;-60
2022/03/17 12:19:29;;;;;;;;;;;12.90;99.90;;;;;;5112608;28;19926;-60
2022/03/17 12:22:01;;;;;;;;;;;13.00;99.90;;;;;;5092792;28;20006;-60
2022/03/17 12:24:35;;;;;;;;;;;13.10;99.90;;;;;;5101160;28;20471;-60
2022/03/17 12:27:03;;;;;;;;;;;13.10;99.90;;;;;;5112783;28;20371;-59
2022/03/17 12:29:31;;;;;;;;;;;13.20;99.90;;;;;;5113362;28;19965;-59
2022/03/17 12:32:05;;;;;;;;;;;13.10;99.90;;;;;;5112602;28;19926;-60
2022/03/17 12:34:32;;;;;;;;;;;13.00;99.90;;;;;;5096118;28;20237;-60
2022/03/17 12:36:59;;;;;;;;;;;13.00;99.90;;;;;;5111930;28;19965;-60
2022/03/17 12:39:36;;;;;;;;;;;12.80;99.90;;;;;;5113282;28;20006;-60
2022/03/17 12:42:12;;;;;;;;;;;12.80;99.90;;;;;;5101778;28;19973;-60
2022/03/17 12:44:46;;;;;;;;;;;12.90;99.90;;;;;;5109018;28;19931;-60
2022/03/17 12:47:13;;;;;;;;;;;12.90;99.90;;;;;;5113318;28;19949;-60
2022/03/17 12:49:41;;;;;;;;;;;12.90;99.90;;;;;;5105250;28;20356;-60
2022/03/17 12:52:27;;;;;;;;;;;12.80;99.90;;;;;;5104290;28;19984;-60
2022/03/17 12:55:00;;;;;;;;;;;12.90;99.90;;;;;;5113244;28;19919;-60
2022/03/17 12:57:29;;;;;;;;;;;12.80;99.90;;;;;;5108962;28;19920;-60
2022/03/17 12:59:56;;;;;;;;;;;12.60;99.90;;;;;;5104283;28;19919;-60
2022/03/17 13:02:23;;;;;;;;;;;12.50;99.90;;;;;;5112902;28;19967;-60
2022/03/17 13:04:52;;;;;;;;;;;12.40;99.90;;;;;;5113005;28;19919;-59
2022/03/17 13:07:19;;;;;;;;;;;12.30;99.90;;;;;;5103337;28;19919;-60
2022/03/17 13:09:47;;;;;;;;;;;12.30;99.90;;;;;;5103916;28;19930;-60
2022/03/17 13:15:09;;;;;;;;;;;11.90;99.90;;;;;;5108224;28;19923;-60
2022/03/17 13:17:43;;;;;;;;;;;11.80;99.90;;;;;;5092260;28;19920;-59
2022/03/17 13:20:11;;;;;;;;;;;11.80;99.90;;;;;;5092096;28;19920;-60
2022/03/17 13:22:41;;;;;;;;;;;11.90;99.90;;;;;;5099202;28;20393;-60
2022/03/17 13:25:11;;;;;;;;;;;11.80;99.90;;;;;;5089930;28;19965;-59
2022/03/17 13:27:39;;;;;;;;;;;11.90;99.90;;;;;;5096159;28;19973;-59
2022/03/17 13:30:07;;;;;;;;;;;11.90;99.90;;;;;;5111444;28;19920;-60
2022/03/17 13:32:34;;;;;;;;;;;11.80;99.90;;;;;;5112533;28;20519;-60
2022/03/17 13:35:02;;;;;;;;;;;11.80;99.90;;;;;;5102623;28;19920;-59
2022/03/17 13:37:36;;;;;;;;;;;11.70;99.90;;;;;;5094657;28;20026;-60
2022/03/17 13:40:05;;;;;;;;;;;11.70;99.90;;;;;;5091782;28;19920;-60
2022/03/17 13:42:31;;;;;;;;;;;11.70;99.90;;;;;;5091920;28;19943;-59
2022/03/17 13:45:00;;;;;;;;;;;11.50;99.90;;;;;;5101843;28;20014;-59
2022/03/17 13:47:58;;;;;;;;;;;11.50;99.90;;;;;;5112360;28;19924;-59
2022/03/17 13:50:25;;;;;;;;;;;11.40;99.90;;;;;;5112181;28;19958;-60
2022/03/17 13:53:10;;;;;;;;;;;11.40;99.90;;;;;;5104564;28;19920;-60
2022/03/17 13:55:43;;;;;;;;;;;11.40;99.90;;;;;;5103674;28;19973;-60
2022/03/17 13:58:14;;;;;;;;;;;11.30;99.90;;;;;;5112193;28;19953;-60
2022/03/17 14:00:41;;;;;;;;;;;11.40;99.90;;;;;;5111994;28;19926;-60
2022/03/17 14:03:13;;;;;;;;;;;11.40;99.90;;;;;;5101131;28;19973;-59
2022/03/17 14:05:58;;;;;;;;;;;11.40;99.90;;;;;;5108121;28;20338;-60
2022/03/17 14:08:25;;;;;;;;;;;11.30;99.90;;;;;;5112011;28;19932;-60
2022/03/17 14:10:52;;;;;;;;;;;11.40;99.90;;;;;;5110097;28;20445;-59
2022/03/17 14:13:20;;;;;;;;;;;11.40;99.90;;;;;;5100112;28;19924;-59
2022/03/17 14:15:49;;;;;;;;;;;11.30;99.90;;;;;;5109054;28;19927;-60
2022/03/17 14:18:16;;;;;;;;;;;11.20;99.90;;;;;;5112204;28;19924;-60
2022/03/17 14:20:46;;;;;;;;;;;11.10;99.90;;;;;;5103679;28;19962;-59
2022/03/17 14:25:59;;;;;;;;;;;11.00;99.90;;;;;;5112276;28;19959;-59
2022/03/17 14:28:26;;;;;;;;;;;11.00;99.90;;;;;;5111745;28;20367;-60
2022/03/17 14:30:53;;;;;;;;;;;11.00;99.90;;;;;;5102760;28;20303;-59
2022/03/17 14:33:19;;;;;;;;;;;10.80;99.90;;;;;;5103333;28;19968;-59
2022/03/17 14:35:46;;;;;;;;;;;10.80;99.90;;;;;;5112196;28;19920;-59
2022/03/17 14:38:13;;;;;;;;;;;10.80;99.90;;;;;;5109570;28;20436;-59
2022/03/17 14:40:40;;;;;;;;;;;10.80;99.90;;;;;;5103250;28;20397;-59
2022/03/17 14:43:07;;;;;;;;;;;10.80;99.90;;;;;;5114448;28;20395;-59
2022/03/17 14:45:34;;;;;;;;;;;10.70;99.90;;;;;;5115828;28;19923;-59
2022/03/17 14:48:00;;;;;;;;;;;10.70;99.90;;;;;;5106258;28;20050;-59
2022/03/17 14:50:27;;;;;;;;;;;10.60;99.90;;;;;;5109610;28;20034;-59
2022/03/17 14:52:54;;;;;;;;;;;10.70;99.90;;;;;;5115214;28;20010;-59